This is the latest recevied weather packets stored in our database for station/object W2CJS. If no packets are shown the sender has not sent any weather packets the latest 10 day(s).
| Time | Temp. | Humidity | Pressure | Rain* | Wind** | Luminosity | Snow |
|---|---|---|---|---|---|---|---|
| 1777231824 | 17.22° C | 33% | 1018.1 hPa | 0 mm | - | - | - |
| 1777225803 | 16.11° C | 40% | 1018.6 hPa | 0 mm | - | - | - |
| 1777224603 | 16.11° C | 34% | 1018.9 hPa | 0 mm | - | - | - |
| 1777220404 | 15° C | 40% | 1019.3 hPa | 0 mm | - | - | - |
| 1777215004 | 12.22° C | 48% | 1019.6 hPa | 0 mm | - | - | - |
| 1777212603 | 9.44° C | 66% | 1019.5 hPa | 0 mm | - | - | - |
| 1777209004 | 6.67° C | 79% | 1019.4 hPa | 0 mm | - | - | - |
| 1777207203 | 5° C | 88% | 1019.4 hPa | 0 mm | - | - | - |
| 1777206003 | 3.89° C | 93% | 1019.5 hPa | 0 mm | - | - | - |
| 1777204803 | 1.67° C | 93% | 1019.3 hPa | 0 mm | - | - | - |
| 1777204203 | 1.11° C | 93% | 1019.2 hPa | 0 mm | - | - | - |
| 1777201824 | -0.56° C | 91% | 1018.8 hPa | 0 mm | - | - | - |
| 1777200003 | -1.11° C | 90% | 1018.4 hPa | 0 mm | - | - | - |
| 1777199403 | -1.11° C | 90% | 1018.4 hPa | 0 mm | - | - | - |
| 1777194603 | -0.56° C | 89% | 1017.7 hPa | 0 mm | - | - | - |
| 1777189804 | 0° C | 86% | 1017 hPa | 0 mm | - | - | - |
| 1777189225 | 0.56° C | 86% | 1016.8 hPa | 0 mm | - | - | - |
| 1777183203 | 2.22° C | 82% | 1016.7 hPa | 0 mm | - | - | - |
| 1777182003 | 2.22° C | 81% | 1016.7 hPa | 0 mm | - | - | - |
| 1777180804 | 2.22° C | 80% | 1016.5 hPa | 0 mm | - | - | - |
| 1777179624 | 2.22° C | 79% | 1016.4 hPa | 0 mm | - | - | - |
| 1777179003 | 2.78° C | 79% | 1016.4 hPa | 0 mm | - | - | - |
| 1777178424 | 3.33° C | 78% | 1016.5 hPa | 0 mm | - | - | - |
| 1777174203 | 5.56° C | 71% | 1016.3 hPa | 0 mm | - | - | - |
| 1777164003 | 10° C | 52% | 1015 hPa | 0 mm | - | - | - |
* Rain latest hour (hover to see other rain measurements)
** Current wind speed in m/s (hover to see current wind gust speed)